Time;durP1;ratioP1;P1;durP2;ratioP2;P2;SDS_P1;SDS_P2;PMS_P1;PMS_P2;Temp;Humidity;BMP_temperature;BMP_pressure;BME280_temperature;BME280_humidity;BME280_pressure;Samples;Min_cycle;Max_cycle;Signal;HPM_P1;HPM_P2
2022/04/05 00:01:56;;;;;;;6.97;4.35;;;24.10;32.20;;;;;;5070224;28;20519;-56
2022/04/05 00:04:24;;;;;;;5.10;3.42;;;24.10;32.20;;;;;;5083104;28;20044;-55
2022/04/05 00:06:51;;;;;;;4.82;4.35;;;24.10;32.20;;;;;;5072889;28;20041;-57
2022/04/05 00:09:18;;;;;;;5.43;4.43;;;24.10;32.10;;;;;;5074841;28;20040;-56
2022/04/05 00:11:46;;;;;;;7.28;4.22;;;24.10;32.10;;;;;;5070302;28;20446;-56
2022/04/05 00:14:14;;;;;;;5.78;4.47;;;24.10;32.10;;;;;;5068371;28;20546;-53
2022/04/05 00:16:41;;;;;;;5.00;4.38;;;24.10;32.10;;;;;;5071261;28;20051;-57
2022/04/05 00:19:08;;;;;;;5.75;3.60;;;24.10;32.10;;;;;;5074267;28;20048;-57
2022/04/05 00:21:35;;;;;;;4.03;3.28;;;24.10;32.10;;;;;;5070479;28;20047;-56
2022/04/05 00:24:02;;;;;;;5.20;3.35;;;24.10;32.10;;;;;;5072472;28;20093;-56
2022/04/05 00:26:29;;;;;;;4.10;3.75;;;24.00;32.10;;;;;;5066892;28;20042;-59
2022/04/05 00:28:57;;;;;;;8.18;3.85;;;24.10;32.20;;;;;;5070899;28;20045;-58
2022/04/05 00:31:26;;;;;;;5.15;2.85;;;24.10;32.20;;;;;;5071618;28;20048;-57
2022/04/05 00:33:53;;;;;;;5.28;3.13;;;24.10;32.20;;;;;;5073296;28;20082;-59
2022/04/05 00:36:20;;;;;;;5.00;2.67;;;24.10;32.20;;;;;;5076054;28;20047;-57
2022/04/05 00:38:47;;;;;;;3.78;2.85;;;24.10;32.30;;;;;;5069420;28;20131;-57
2022/04/05 00:41:15;;;;;;;2.90;1.65;;;24.00;32.20;;;;;;5067100;28;20048;-56
2022/04/05 00:43:42;;;;;;;3.88;2.28;;;24.10;32.90;;;;;;5072370;28;20398;-58
2022/04/05 00:46:09;;;;;;;2.97;2.63;;;24.00;32.20;;;;;;5078494;28;20032;-56
2022/04/05 00:48:48;;;;;;;3.13;2.70;;;24.00;32.30;;;;;;5070030;28;20052;-58
2022/04/05 00:51:16;;;;;;;2.42;1.38;;;24.00;32.20;;;;;;5071654;28;20699;-57
2022/04/05 00:53:47;;;;;;;2.63;1.60;;;24.00;32.30;;;;;;5065393;28;20049;-55
2022/04/05 00:56:15;;;;;;;1.85;1.75;;;24.00;32.40;;;;;;5077595;28;20068;-55
2022/04/05 00:58:45;;;;;;;2.92;1.52;;;24.00;32.40;;;;;;5068766;28;20044;-55
2022/04/05 01:01:15;;;;;;;4.63;2.47;;;24.00;32.50;;;;;;5074938;28;20174;-57
2022/04/05 01:03:48;;;;;;;4.95;0.98;;;24.00;32.50;;;;;;5069574;28;20412;-55
2022/04/05 01:06:18;;;;;;;2.22;1.08;;;23.90;32.50;;;;;;5071669;28;20509;-54
2022/04/05 01:08:47;;;;;;;2.30;1.05;;;24.00;32.70;;;;;;5070633;28;20074;-57
2022/04/05 01:11:14;;;;;;;1.58;1.40;;;23.90;32.70;;;;;;5071323;28;20588;-55
2022/04/05 01:13:41;;;;;;;1.85;0.95;;;23.90;32.70;;;;;;5067778;28;20122;-56
2022/04/05 01:16:08;;;;;;;2.63;1.25;;;23.90;32.80;;;;;;5068822;28;20049;-57
2022/04/05 01:18:36;;;;;;;1.60;0.90;;;23.90;32.90;;;;;;5073214;28;20048;-58
2022/04/05 01:21:04;;;;;;;2.40;0.90;;;23.90;32.90;;;;;;5067696;28;20044;-58
2022/04/05 01:23:32;;;;;;;0.70;0.60;;;23.90;32.90;;;;;;5068391;28;20071;-58
2022/04/05 01:26:01;;;;;;;1.15;1.08;;;23.90;33.00;;;;;;5067308;28;20135;-59
2022/04/05 01:28:29;;;;;;;0.70;0.40;;;23.90;33.10;;;;;;5072840;28;20056;-56
2022/04/05 01:30:56;;;;;;;1.30;0.68;;;23.90;33.20;;;;;;5070368;28;20521;-58
2022/04/05 01:33:23;;;;;;;1.15;0.90;;;23.90;33.20;;;;;;5072182;28;20562;-56
2022/04/05 01:35:51;;;;;;;0.65;0.50;;;23.90;33.30;;;;;;5071227;28;20063;-52
2022/04/05 01:38:18;;;;;;;1.75;1.05;;;23.90;33.40;;;;;;5069536;28;20454;-57
2022/04/05 01:40:46;;;;;;;0.40;0.40;;;23.90;33.40;;;;;;5065142;28;20130;-56
2022/04/05 01:43:14;;;;;;;1.08;0.68;;;23.90;33.50;;;;;;5073992;28;20055;-53
2022/04/05 01:45:44;;;;;;;0.73;0.73;;;23.90;33.50;;;;;;5064283;28;20433;-56
2022/04/05 01:48:11;;;;;;;0.63;0.63;;;23.90;33.60;;;;;;5070193;28;20037;-55
2022/04/05 01:50:38;;;;;;;1.95;0.35;;;23.90;34.30;;;;;;5066667;28;20238;-54
2022/04/05 01:53:06;;;;;;;1.25;0.38;;;23.90;33.80;;;;;;5067523;28;20471;-56
2022/04/05 01:55:33;;;;;;;0.35;0.32;;;23.90;33.80;;;;;;5073603;28;20139;-58
2022/04/05 01:58:02;;;;;;;0.95;0.30;;;23.90;33.80;;;;;;5073835;28;20105;-57
2022/04/05 02:00:30;;;;;;;1.23;0.43;;;23.90;34.30;;;;;;5071344;28;20041;-57
2022/04/05 02:02:58;;;;;;;1.13;0.65;;;23.90;33.70;;;;;;5067552;28;20145;-59
2022/04/05 02:05:25;;;;;;;0.40;0.30;;;23.90;33.70;;;;;;5066896;28;20378;-57
2022/04/05 02:07:52;;;;;;;0.65;0.30;;;23.90;33.70;;;;;;5066620;28;20571;-57
2022/04/05 02:10:20;;;;;;;2.45;0.63;;;23.90;33.80;;;;;;5074038;28;20134;-58
2022/04/05 02:12:47;;;;;;;1.17;0.60;;;23.90;33.80;;;;;;5075212;28;20112;-60
2022/04/05 02:15:22;;;;;;;1.17;0.35;;;23.90;33.80;;;;;;5073736;28;20772;-57
2022/04/05 02:18:05;;;;;;;0.90;0.30;;;23.90;33.80;;;;;;5070860;28;20116;-59
2022/04/05 02:20:33;;;;;;;0.55;0.30;;;23.90;33.90;;;;;;5068653;28;20558;-59
2022/04/05 02:23:02;;;;;;;2.13;0.17;;;23.90;33.90;;;;;;5063566;28;20657;-56
2022/04/05 02:25:48;;;;;;;0.68;0.25;;;23.90;33.90;;;;;;5068304;28;20037;-54
2022/04/05 02:28:20;;;;;;;0.75;0.20;;;23.90;33.90;;;;;;5073810;28;20049;-57
2022/04/05 02:30:53;;;;;;;1.95;0.28;;;23.90;34.00;;;;;;5077052;28;20046;-59
2022/04/05 02:33:26;;;;;;;2.58;0.75;;;23.90;34.00;;;;;;5073748;28;20711;-59
2022/04/05 02:35:57;;;;;;;0.88;0.50;;;23.90;33.90;;;;;;5074132;28;20120;-58
2022/04/05 02:38:24;;;;;;;0.80;0.10;;;23.90;33.90;;;;;;5065611;28;20032;-61
2022/04/05 02:40:53;;;;;;;1.10;0.40;;;23.90;33.90;;;;;;5064509;28;20582;-59
2022/04/05 02:43:22;;;;;;;1.05;0.30;;;23.90;34.20;;;;;;5071861;28;20110;-59
2022/04/05 02:45:49;;;;;;;0.30;0.30;;;23.90;34.50;;;;;;5067659;28;20135;-59
2022/04/05 02:48:17;;;;;;;0.20;0.10;;;23.90;34.00;;;;;;5069592;28;20607;-59
2022/04/05 02:50:46;;;;;;;0.20;0.10;;;23.90;34.00;;;;;;5069670;28;20044;-59
2022/04/05 02:53:13;;;;;;;0.60;0.10;;;23.90;34.70;;;;;;5071831;28;20037;-60
2022/04/05 02:55:41;;;;;;;2.38;0.30;;;23.90;34.10;;;;;;5068666;28;20052;-59
2022/04/05 02:58:10;;;;;;;0.95;0.20;;;23.90;34.10;;;;;;5081749;28;20417;-59
2022/04/05 03:00:39;;;;;;;0.50;0.20;;;23.90;34.10;;;;;;5074865;28;20443;-57
2022/04/05 03:03:12;;;;;;;0.30;0.13;;;23.90;34.20;;;;;;5074312;28;20040;-59
2022/04/05 03:05:47;;;;;;;0.40;0.20;;;23.90;34.20;;;;;;5080728;28;20133;-59
2022/04/05 03:08:16;;;;;;;2.75;0.32;;;23.90;34.30;;;;;;5080619;28;20051;-59
2022/04/05 03:10:44;;;;;;;1.20;0.20;;;23.90;34.30;;;;;;5072483;28;20054;-60
2022/04/05 03:13:12;;;;;;;0.40;0.20;;;23.90;34.30;;;;;;5072770;28;20091;-60
2022/04/05 03:15:39;;;;;;;0.68;0.40;;;23.90;34.30;;;;;;5073493;28;20126;-59
2022/04/05 03:18:08;;;;;;;1.35;0.13;;;23.90;34.30;;;;;;5074690;28;20629;-59
2022/04/05 03:20:35;;;;;;;0.17;0.17;;;23.90;34.40;;;;;;5071368;28;20040;-58
2022/04/05 03:23:05;;;;;;;0.20;0.10;;;23.90;34.40;;;;;;5079404;28;20094;-58
2022/04/05 03:25:32;;;;;;;0.70;0.10;;;23.90;34.40;;;;;;5074506;28;20351;-55
2022/04/05 03:28:01;;;;;;;0.30;0.10;;;23.90;34.40;;;;;;5075929;28;20516;-54
2022/04/05 03:30:28;;;;;;;0.40;0.10;;;23.90;34.70;;;;;;5076386;28;20044;-55
2022/04/05 03:32:58;;;;;;;0.73;0.15;;;23.90;34.80;;;;;;5073592;28;20051;-56
2022/04/05 03:35:26;;;;;;;0.68;0.10;;;23.80;34.80;;;;;;5071699;28;20450;-54
2022/04/05 03:37:55;;;;;;;0.30;0.25;;;23.70;35.00;;;;;;5068040;28;20041;-56
2022/04/05 03:40:24;;;;;;;2.95;0.10;;;23.60;35.00;;;;;;5076304;28;20040;-52
2022/04/05 03:42:52;;;;;;;0.30;0.10;;;23.50;35.10;;;;;;5076983;28;20575;-56
2022/04/05 03:45:19;;;;;;;0.20;0.10;;;23.40;35.30;;;;;;5077815;28;20048;-56
2022/04/05 03:47:46;;;;;;;4.32;0.10;;;23.30;35.40;;;;;;5081943;28;20063;-56
2022/04/05 03:50:15;;;;;;;0.40;0.10;;;23.20;35.60;;;;;;5070075;28;20063;-56
2022/04/05 03:52:46;;;;;;;1.48;0.10;;;23.10;35.70;;;;;;5073675;28;20114;-56
2022/04/05 03:55:16;;;;;;;0.52;0.10;;;23.00;35.90;;;;;;5080358;28;20051;-57
2022/04/05 03:57:49;;;;;;;4.60;0.10;;;23.00;36.10;;;;;;5074964;28;20044;-57
2022/04/05 04:00:18;;;;;;;5.07;0.10;;;22.90;36.90;;;;;;5089691;28;20048;-55
2022/04/05 04:02:56;;;;;;;0.40;0.10;;;22.80;36.40;;;;;;5086538;28;20409;-57
2022/04/05 04:05:23;;;;;;;1.00;0.10;;;22.70;36.50;;;;;;5081837;28;20055;-57
2022/04/05 04:07:53;;;;;;;1.38;0.10;;;22.70;36.70;;;;;;5071271;28;20048;-56
2022/04/05 04:10:24;;;;;;;0.22;0.10;;;22.60;36.80;;;;;;5085354;28;20067;-56
2022/04/05 04:12:53;;;;;;;0.10;0.10;;;22.60;37.00;;;;;;5073784;28;20040;-56
2022/04/05 04:15:21;;;;;;;0.10;0.10;;;22.50;37.00;;;;;;5075452;28;20055;-54
2022/04/05 04:17:49;;;;;;;0.70;0.20;;;22.40;37.10;;;;;;5071003;28;20071;-56
2022/04/05 04:20:17;;;;;;;0.20;0.10;;;22.40;37.20;;;;;;5069760;28;20052;-56
2022/04/05 04:22:44;;;;;;;0.17;0.10;;;22.40;37.40;;;;;;5071905;28;20411;-57
2022/04/05 04:25:13;;;;;;;0.13;0.00;;;22.30;37.50;;;;;;5077335;28;20043;-56
2022/04/05 04:27:40;;;;;;;0.57;0.10;;;22.20;37.60;;;;;;5072281;28;20561;-55
2022/04/05 04:30:10;;;;;;;0.50;0.08;;;22.20;37.70;;;;;;5075008;28;20043;-54
2022/04/05 04:32:37;;;;;;;1.35;0.00;;;22.10;37.80;;;;;;5071640;28;20567;-56
2022/04/05 04:35:05;;;;;;;0.10;0.00;;;22.10;37.90;;;;;;5073751;28;20036;-56
2022/04/05 04:37:32;;;;;;;0.10;0.10;;;22.10;38.00;;;;;;5070658;28;20040;-53
2022/04/05 04:39:59;;;;;;;0.30;0.30;;;22.00;38.10;;;;;;5078398;28;20047;-57
2022/04/05 04:42:26;;;;;;;0.63;0.05;;;21.90;38.10;;;;;;5079877;28;20047;-55
2022/04/05 04:44:54;;;;;;;0.10;0.08;;;22.00;38.30;;;;;;5077780;28;20040;-56
2022/04/05 04:47:23;;;;;;;0.20;0.00;;;21.90;38.40;;;;;;5068264;28;20052;-57
2022/04/05 04:49:50;;;;;;;1.27;0.08;;;21.90;38.40;;;;;;5071089;28;20036;-57
2022/04/05 04:52:17;;;;;;;0.10;0.10;;;21.80;38.50;;;;;;5085571;28;20044;-54
2022/04/05 04:54:44;;;;;;;0.38;0.10;;;21.80;38.60;;;;;;5079883;28;20046;-57
2022/04/05 04:57:11;;;;;;;0.40;0.00;;;21.80;38.70;;;;;;5077406;28;20532;-56
2022/04/05 04:59:38;;;;;;;0.10;0.00;;;21.80;38.90;;;;;;5080238;28;20040;-56
2022/04/05 05:02:05;;;;;;;0.25;0.05;;;21.70;38.90;;;;;;5072330;28;20082;-57
2022/04/05 05:04:34;;;;;;;0.28;0.10;;;21.70;39.10;;;;;;5072566;28;20032;-52
2022/04/05 05:07:01;;;;;;;0.00;0.00;;;21.70;39.20;;;;;;5084067;28;20114;-52
2022/04/05 05:09:29;;;;;;;0.00;0.00;;;21.70;39.20;;;;;;5080119;28;20040;-57
2022/04/05 05:11:56;;;;;;;0.20;0.20;;;21.60;39.20;;;;;;5079079;28;20036;-53
2022/04/05 05:14:23;;;;;;;0.13;0.00;;;21.60;39.30;;;;;;5082126;28;20036;-54
2022/04/05 05:16:50;;;;;;;0.00;0.00;;;21.60;39.40;;;;;;5083934;28;20059;-56
2022/04/05 05:19:17;;;;;;;0.10;0.00;;;21.60;39.50;;;;;;5072787;28;20048;-55
2022/04/05 05:21:46;;;;;;;0.10;0.10;;;21.50;39.60;;;;;;5077831;28;20052;-55
2022/04/05 05:24:13;;;;;;;0.00;0.00;;;21.50;39.70;;;;;;5080154;28;20412;-57
2022/04/05 05:26:40;;;;;;;0.15;0.00;;;21.50;39.90;;;;;;5078877;28;20109;-57
2022/04/05 05:29:07;;;;;;;0.10;0.10;;;21.50;40.00;;;;;;5066487;28;20067;-57
2022/04/05 05:31:35;;;;;;;0.10;0.00;;;21.50;40.00;;;;;;5078982;28;20051;-57
2022/04/05 05:34:01;;;;;;;0.13;0.00;;;21.50;40.10;;;;;;5083945;28;20043;-57
2022/04/05 05:36:29;;;;;;;0.47;0.03;;;21.40;40.20;;;;;;5073489;28;20048;-52
2022/04/05 05:38:57;;;;;;;0.10;0.10;;;21.40;40.30;;;;;;5081375;28;20039;-55
2022/04/05 05:41:24;;;;;;;0.00;0.00;;;21.40;40.40;;;;;;5080023;28;20463;-54
2022/04/05 05:43:52;;;;;;;0.10;0.08;;;21.40;40.40;;;;;;5080567;28;20045;-53
2022/04/05 05:46:19;;;;;;;0.10;0.10;;;21.40;40.40;;;;;;5081067;28;20043;-55
2022/04/05 05:48:46;;;;;;;0.05;0.05;;;21.40;40.40;;;;;;5079429;28;20047;-53
2022/04/05 05:51:13;;;;;;;0.03;0.00;;;21.40;40.50;;;;;;5075287;28;20040;-55
2022/04/05 05:53:40;;;;;;;1.17;0.03;;;21.40;40.50;;;;;;5071637;28;20036;-51
2022/04/05 05:56:09;;;;;;;0.00;0.00;;;21.30;40.60;;;;;;5073124;28;20118;-56
2022/04/05 05:58:36;;;;;;;0.55;0.10;;;21.30;40.60;;;;;;5078375;28;20082;-56
2022/04/05 06:01:03;;;;;;;1.27;0.30;;;21.30;40.70;;;;;;5083143;28;20692;-55
2022/04/05 06:03:30;;;;;;;0.00;0.00;;;21.30;40.70;;;;;;5073578;28;20047;-54
2022/04/05 06:05:57;;;;;;;0.43;0.20;;;21.30;40.80;;;;;;5075955;28;20163;-56
2022/04/05 06:08:25;;;;;;;2.95;0.00;;;21.30;41.40;;;;;;5070416;28;20036;-54
2022/04/05 06:10:52;;;;;;;0.08;0.00;;;21.30;40.90;;;;;;5066475;28;20052;-56
2022/04/05 06:13:21;;;;;;;1.33;0.08;;;21.30;41.00;;;;;;5080379;28;20067;-58
2022/04/05 06:15:48;;;;;;;2.50;0.60;;;21.30;40.90;;;;;;5077695;28;20068;-52
2022/04/05 06:18:15;;;;;;;2.50;0.10;;;21.30;40.90;;;;;;5070013;28;20421;-49
2022/04/05 06:20:42;;;;;;;2.47;0.00;;;21.30;41.10;;;;;;5070025;28;20044;-62
2022/04/05 06:23:09;;;;;;;1.65;0.30;;;21.30;41.20;;;;;;5068709;28;20044;-54
2022/04/05 06:25:38;;;;;;;0.10;0.10;;;21.40;41.40;;;;;;5081054;28;20052;-68
2022/04/05 06:28:07;;;;;;;0.10;0.10;;;21.40;42.10;;;;;;5071557;28;20135;-67
2022/04/05 06:30:37;;;;;;;0.15;0.00;;;21.40;42.40;;;;;;5074962;28;20459;-78
2022/04/05 06:33:06;;;;;;;0.10;0.10;;;21.40;42.50;;;;;;5074629;28;20072;-61
2022/04/05 06:35:33;;;;;;;0.63;0.38;;;21.50;42.60;;;;;;5078199;28;20036;-65
2022/04/05 06:38:00;;;;;;;0.20;0.10;;;21.50;42.50;;;;;;5066342;28;20036;-67
2022/04/05 06:40:28;;;;;;;0.10;0.08;;;21.70;42.20;;;;;;5079022;28;20046;-64
2022/04/05 06:42:55;;;;;;;0.10;0.10;;;21.80;42.10;;;;;;5079637;28;20044;-64
2022/04/05 06:45:24;;;;;;;0.20;0.20;;;21.90;41.90;;;;;;5074986;28;20123;-68
2022/04/05 06:47:52;;;;;;;0.20;0.17;;;22.00;41.80;;;;;;5070507;28;20052;-64
2022/04/05 06:50:24;;;;;;;2.05;0.10;;;22.20;41.60;;;;;;5080981;28;20040;-72
2022/04/05 06:52:53;;;;;;;0.25;0.10;;;22.40;41.30;;;;;;5081383;28;20128;-70
2022/04/05 06:55:20;;;;;;;2.05;0.00;;;22.50;41.00;;;;;;5080299;28;20041;-66
2022/04/05 06:57:48;;;;;;;2.55;0.10;;;22.70;40.70;;;;;;5077177;28;20048;-68
2022/04/05 07:00:17;;;;;;;0.82;0.05;;;22.90;40.30;;;;;;5075631;28;20044;-69
2022/04/05 07:02:44;;;;;;;0.70;0.00;;;23.10;40.00;;;;;;5081348;28;20032;-69
2022/04/05 07:05:13;;;;;;;0.05;0.00;;;23.30;39.70;;;;;;5069193;28;20086;-68
2022/04/05 07:07:41;;;;;;;0.10;0.08;;;23.40;39.30;;;;;;5077828;28;20444;-69
2022/04/05 07:10:10;;;;;;;0.47;0.10;;;23.60;39.10;;;;;;5072679;28;20853;-72
2022/04/05 07:12:38;;;;;;;0.25;0.20;;;23.70;38.80;;;;;;5071113;28;20067;-65
2022/04/05 07:15:07;;;;;;;0.10;0.10;;;23.80;38.70;;;;;;5071231;28;20528;-60
2022/04/05 07:17:34;;;;;;;1.40;0.00;;;23.90;38.50;;;;;;5080714;28;20074;-63
2022/04/05 07:20:02;;;;;;;0.20;0.20;;;24.10;38.40;;;;;;5076716;28;20118;-60
2022/04/05 07:22:31;;;;;;;0.10;0.00;;;24.10;38.20;;;;;;5076312;28;20048;-55
2022/04/05 07:24:59;;;;;;;0.15;0.15;;;24.20;38.10;;;;;;5072499;28;20131;-63
2022/04/05 07:27:26;;;;;;;1.65;0.05;;;24.30;37.90;;;;;;5071696;28;20040;-70
2022/04/05 07:29:53;;;;;;;0.55;0.10;;;24.30;37.80;;;;;;5078030;28;20028;-68
2022/04/05 07:32:20;;;;;;;0.90;0.10;;;24.40;37.70;;;;;;5074927;28;20139;-69
2022/04/05 07:34:47;;;;;;;0.10;0.08;;;24.40;37.50;;;;;;5078481;28;20164;-69
2022/04/05 07:37:14;;;;;;;0.73;0.10;;;24.50;37.40;;;;;;5079844;28;20156;-71
2022/04/05 07:39:43;;;;;;;0.00;0.00;;;24.60;38.00;;;;;;5082422;28;20346;-63
2022/04/05 07:42:10;;;;;;;0.20;0.10;;;24.50;37.30;;;;;;5079037;28;20102;-62
2022/04/05 07:44:37;;;;;;;0.10;0.03;;;24.60;37.20;;;;;;5071284;28;20044;-56
2022/04/05 07:47:05;;;;;;;0.73;0.28;;;24.60;37.10;;;;;;5070197;28;20127;-56
2022/04/05 07:49:33;;;;;;;6.95;0.40;;;24.60;37.10;;;;;;5076174;28;20520;-56
2022/04/05 07:52:00;;;;;;;10.52;1.30;;;24.70;37.20;;;;;;5075312;28;20049;-60
2022/04/05 07:54:27;;;;;;;3.20;0.25;;;24.70;37.20;;;;;;5075625;28;20051;-60
2022/04/05 07:56:55;;;;;;;0.75;0.17;;;24.70;37.20;;;;;;5074608;28;20091;-74
2022/04/05 07:59:23;;;;;;;3.00;0.20;;;24.70;37.20;;;;;;5077631;28;20028;-73
2022/04/05 08:01:50;;;;;;;0.60;0.08;;;24.80;37.20;;;;;;5070558;28;20040;-70
2022/04/05 08:04:17;;;;;;;1.20;0.10;;;24.80;37.10;;;;;;5082755;28;20416;-72
2022/04/05 08:06:44;;;;;;;0.30;0.00;;;24.80;37.00;;;;;;5077250;28;20163;-62
2022/04/05 08:09:12;;;;;;;4.55;0.25;;;24.90;37.00;;;;;;5072325;28;20036;-68
2022/04/05 08:11:39;;;;;;;2.40;0.60;;;24.90;37.00;;;;;;5074889;28;20060;-61
2022/04/05 08:14:07;;;;;;;1.75;0.10;;;24.90;37.10;;;;;;5076631;28;20082;-63
2022/04/05 08:16:35;;;;;;;0.85;0.10;;;24.90;37.00;;;;;;5087501;28;20091;-65
2022/04/05 08:19:04;;;;;;;1.65;0.10;;;25.00;37.10;;;;;;5076234;28;20056;-63
2022/04/05 08:21:31;;;;;;;0.17;0.10;;;25.00;37.00;;;;;;5074614;28;20045;-65
2022/04/05 08:23:58;;;;;;;0.10;0.05;;;25.00;36.90;;;;;;5074668;28;20124;-59
2022/04/05 08:26:26;;;;;;;0.20;0.10;;;25.10;36.80;;;;;;5075177;28;20036;-65
2022/04/05 08:28:55;;;;;;;1.65;0.10;;;25.10;36.70;;;;;;5067361;28;20036;-60
2022/04/05 08:31:23;;;;;;;0.03;0.03;;;25.20;36.70;;;;;;5083561;28;20049;-62
2022/04/05 08:33:51;;;;;;;2.45;0.10;;;25.20;36.50;;;;;;5076519;28;20036;-59
2022/04/05 08:36:18;;;;;;;1.85;0.10;;;25.20;36.40;;;;;;5069252;28;20051;-61
2022/04/05 08:38:45;;;;;;;0.10;0.10;;;25.30;36.40;;;;;;5073510;28;20067;-58
2022/04/05 08:41:14;;;;;;;0.10;0.10;;;25.30;36.40;;;;;;5070769;28;20106;-60
2022/04/05 08:43:43;;;;;;;1.27;0.10;;;25.30;36.40;;;;;;5071365;28;20155;-66
2022/04/05 08:46:11;;;;;;;0.70;0.20;;;25.30;36.50;;;;;;5073250;28;20072;-68
2022/04/05 08:48:40;;;;;;;0.50;0.30;;;25.20;36.50;;;;;;5079672;28;20139;-61
2022/04/05 08:51:07;;;;;;;0.10;0.10;;;25.20;36.50;;;;;;5075285;28;20067;-60
2022/04/05 08:53:35;;;;;;;2.25;0.10;;;25.20;36.60;;;;;;5074614;28;20048;-61
2022/04/05 08:56:02;;;;;;;1.70;0.38;;;25.10;36.60;;;;;;5073492;28;20113;-57
2022/04/05 08:58:30;;;;;;;1.88;0.10;;;25.10;36.70;;;;;;5073951;28;20044;-63
2022/04/05 09:00:57;;;;;;;1.80;0.10;;;25.10;36.80;;;;;;5070820;28;20127;-65
2022/04/05 09:03:24;;;;;;;0.43;0.10;;;25.00;36.80;;;;;;5071376;28;20036;-64
2022/04/05 09:05:53;;;;;;;0.57;0.10;;;25.00;36.90;;;;;;5074221;28;20063;-63
2022/04/05 09:08:22;;;;;;;0.10;0.10;;;25.00;37.00;;;;;;5075068;28;20073;-60
2022/04/05 09:10:52;;;;;;;3.40;0.32;;;24.90;37.00;;;;;;5065263;28;20079;-63
2022/04/05 09:13:22;;;;;;;0.17;0.10;;;24.90;37.10;;;;;;5082263;28;20523;-62
2022/04/05 09:15:51;;;;;;;1.65;0.20;;;24.90;37.20;;;;;;5074960;28;20052;-55
2022/04/05 09:18:36;;;;;;;0.20;0.20;;;24.90;37.20;;;;;;5071757;28;20036;-56
2022/04/05 09:21:05;;;;;;;0.32;0.13;;;24.90;37.20;;;;;;5076190;28;20040;-62
2022/04/05 09:23:38;;;;;;;1.70;0.20;;;24.80;37.30;;;;;;5075069;28;20127;-61
2022/04/05 09:26:08;;;;;;;1.08;0.10;;;24.80;37.40;;;;;;5064415;28;20037;-62
2022/04/05 09:28:37;;;;;;;2.28;0.20;;;24.80;37.40;;;;;;5067350;28;20072;-72
2022/04/05 09:31:07;;;;;;;0.77;0.10;;;24.80;37.40;;;;;;5084241;28;20650;-68
2022/04/05 09:33:36;;;;;;;0.45;0.20;;;24.80;37.50;;;;;;5078586;28;20079;-58
2022/04/05 09:36:11;;;;;;;0.17;0.10;;;24.80;37.50;;;;;;5079778;28;20180;-56
2022/04/05 09:38:40;;;;;;;0.88;0.15;;;24.70;37.60;;;;;;5074884;28;20051;-57
2022/04/05 09:41:16;;;;;;;1.75;0.20;;;24.70;37.60;;;;;;5075184;28;20036;-60
2022/04/05 09:43:54;;;;;;;0.68;0.20;;;24.70;37.60;;;;;;5075866;28;20082;-63
2022/04/05 09:46:23;;;;;;;0.65;0.20;;;24.70;37.60;;;;;;5078498;28;20118;-59
2022/04/05 09:49:06;;;;;;;0.60;0.10;;;24.70;37.70;;;;;;5076085;28;20055;-59
2022/04/05 09:51:40;;;;;;;0.95;0.30;;;24.70;37.70;;;;;;5076332;28;20044;-56
2022/04/05 09:54:17;;;;;;;0.15;0.10;;;24.70;37.70;;;;;;5074342;28;20411;-60
2022/04/05 09:56:45;;;;;;;2.25;0.30;;;24.70;37.70;;;;;;5079195;28;20131;-58
2022/04/05 09:59:18;;;;;;;0.10;0.10;;;24.70;37.70;;;;;;5071636;28;20044;-57
2022/04/05 10:01:46;;;;;;;7.97;0.85;;;24.70;37.70;;;;;;5071103;28;20068;-69
2022/04/05 10:04:16;;;;;;;1.35;0.35;;;24.80;37.80;;;;;;5087430;28;20504;-71
2022/04/05 10:06:47;;;;;;;1.65;0.43;;;24.70;37.80;;;;;;5079795;28;20591;-75
2022/04/05 10:09:16;;;;;;;0.95;0.25;;;24.70;37.80;;;;;;5086701;28;20142;-75
2022/04/05 10:11:44;;;;;;;2.10;0.20;;;24.60;37.90;;;;;;5084643;28;20044;-74
2022/04/05 10:14:14;;;;;;;2.08;0.10;;;24.60;38.10;;;;;;5074152;28;20059;-75
2022/04/05 10:16:42;;;;;;;1.05;0.32;;;24.50;38.10;;;;;;5077890;28;20043;-74
2022/04/05 10:19:11;;;;;;;2.42;0.32;;;24.40;38.10;;;;;;5074148;28;20052;-71
2022/04/05 10:21:41;;;;;;;3.15;0.28;;;24.40;38.10;;;;;;5077270;28;20041;-75
2022/04/05 10:24:11;;;;;;;2.38;0.10;;;24.40;38.20;;;;;;5074726;28;20048;-75
2022/04/05 10:26:41;;;;;;;1.85;0.40;;;24.30;38.20;;;;;;5084753;28;20047;-75
2022/04/05 10:29:10;;;;;;;0.60;0.10;;;24.30;38.30;;;;;;5073747;28;20071;-75
2022/04/05 10:31:45;;;;;;;1.40;0.20;;;24.20;38.30;;;;;;5087243;28;20044;-75
2022/04/05 10:34:21;;;;;;;2.35;0.10;;;24.20;38.30;;;;;;5074015;28;20050;-75
2022/04/05 10:37:09;;;;;;;1.45;0.20;;;24.20;38.30;;;;;;5074485;28;20139;-75
2022/04/05 10:39:38;;;;;;;3.85;0.95;;;24.10;38.30;;;;;;5076343;28;20074;-76
2022/04/05 10:42:21;;;;;;;3.70;0.20;;;24.10;38.40;;;;;;5071669;28;20039;-76
2022/04/05 10:44:52;;;;;;;2.65;0.20;;;24.10;38.60;;;;;;5076670;28;20044;-63
2022/04/05 10:47:19;;;;;;;6.03;0.10;;;24.10;39.10;;;;;;5079703;28;20125;-63
2022/04/05 10:49:48;;;;;;;2.40;0.35;;;24.20;39.10;;;;;;5078448;28;20051;-66
2022/04/05 10:52:18;;;;;;;1.83;0.10;;;24.30;39.10;;;;;;5082743;28;20551;-68
2022/04/05 10:54:49;;;;;;;1.20;0.63;;;24.40;39.00;;;;;;5078163;28;20699;-68
2022/04/05 10:57:29;;;;;;;4.75;0.20;;;24.50;39.00;;;;;;5080189;28;20048;-67
2022/04/05 11:00:05;;;;;;;2.63;0.30;;;24.60;38.90;;;;;;5069933;28;20127;-67
2022/04/05 11:02:37;;;;;;;1.02;0.15;;;24.70;39.00;;;;;;5076977;28;20048;-58
2022/04/05 11:05:37;;;;;;;1.30;0.10;;;24.80;39.00;;;;;;5075642;28;20041;-54
2022/04/05 11:08:10;;;;;;;1.30;0.38;;;24.90;38.80;;;;;;5071831;28;20508;-56
2022/04/05 11:10:54;;;;;;;1.70;0.15;;;24.90;38.80;;;;;;5075963;28;20048;-63
2022/04/05 11:13:36;;;;;;;0.73;0.73;;;25.00;38.70;;;;;;5084316;28;20089;-65
2022/04/05 11:16:04;;;;;;;2.55;0.10;;;25.10;38.70;;;;;;5082125;28;20143;-58
2022/04/05 11:18:34;;;;;;;2.03;0.10;;;25.10;38.70;;;;;;5076199;28;20090;-60
2022/04/05 11:21:06;;;;;;;0.30;0.10;;;25.10;38.60;;;;;;5081376;28;20400;-57
2022/04/05 11:23:57;;;;;;;3.47;0.20;;;25.20;38.50;;;;;;5084567;28;20036;-59
2022/04/05 11:26:29;;;;;;;0.10;0.10;;;25.30;38.50;;;;;;5058961;28;20045;-57
2022/04/05 11:28:58;;;;;;;1.33;0.10;;;25.30;38.50;;;;;;5075670;28;20771;-59
2022/04/05 11:31:35;;;;;;;0.38;0.38;;;25.30;38.40;;;;;;5080515;28;20051;-59
2022/04/05 11:34:24;;;;;;;3.15;0.65;;;25.40;38.30;;;;;;5081851;28;20040;-60
2022/04/05 11:36:52;;;;;;;0.10;0.10;;;25.40;38.20;;;;;;5077482;28;20037;-67
2022/04/05 11:39:20;;;;;;;1.17;0.10;;;25.40;38.10;;;;;;5085347;28;20050;-55
2022/04/05 11:41:47;;;;;;;2.58;0.40;;;25.50;38.10;;;;;;5074556;28;20043;-54
2022/04/05 11:44:16;;;;;;;0.38;0.10;;;25.50;38.00;;;;;;5075454;28;20043;-57
2022/04/05 11:46:45;;;;;;;0.20;0.10;;;25.60;38.00;;;;;;5085399;28;20048;-52
2022/04/05 11:49:13;;;;;;;1.20;0.77;;;25.60;37.90;;;;;;5085359;28;20047;-55
2022/04/05 11:51:45;;;;;;;0.45;0.10;;;25.60;37.80;;;;;;5081332;28;20044;-57
2022/04/05 11:54:17;;;;;;;1.10;0.10;;;25.70;37.80;;;;;;5079967;28;20067;-56
2022/04/05 11:56:46;;;;;;;5.47;0.10;;;25.70;37.80;;;;;;5086534;28;20036;-61
2022/04/05 11:59:15;;;;;;;0.82;0.28;;;25.70;37.80;;;;;;5080063;28;20504;-68
2022/04/05 12:01:49;;;;;;;2.25;0.63;;;25.70;37.70;;;;;;5077983;28;20048;-67
2022/04/05 12:04:18;;;;;;;3.22;0.20;;;25.70;37.70;;;;;;5088612;28;20135;-67
2022/04/05 12:06:46;;;;;;;0.20;0.10;;;25.70;37.70;;;;;;5073067;28;20142;-68
2022/04/05 12:09:17;;;;;;;0.10;0.08;;;25.70;37.70;;;;;;5079247;28;20123;-64
2022/04/05 12:11:47;;;;;;;1.75;0.10;;;25.70;37.70;;;;;;5079832;28;20033;-55
2022/04/05 12:14:16;;;;;;;6.60;0.17;;;25.70;37.70;;;;;;5081419;28;20033;-54
2022/04/05 12:16:48;;;;;;;1.20;0.10;;;25.70;37.70;;;;;;5073668;28;20102;-55
2022/04/05 12:19:19;;;;;;;0.10;0.10;;;25.70;38.40;;;;;;5080079;28;20417;-56
2022/04/05 12:21:52;;;;;;;0.80;0.10;;;25.70;37.80;;;;;;5083011;28;20412;-54
2022/04/05 12:24:20;;;;;;;1.00;0.17;;;25.60;37.80;;;;;;5072857;28;20098;-60
2022/04/05 12:26:48;;;;;;;2.10;0.10;;;25.70;37.80;;;;;;5077862;28;20040;-68
2022/04/05 12:29:16;;;;;;;0.17;0.10;;;25.60;37.80;;;;;;5077336;28;20040;-59
2022/04/05 12:31:44;;;;;;;0.20;0.20;;;25.60;38.40;;;;;;5083326;28;20040;-65
2022/04/05 12:34:13;;;;;;;1.20;0.10;;;25.60;37.90;;;;;;5081399;28;20053;-71
2022/04/05 12:36:43;;;;;;;0.17;0.10;;;25.60;38.00;;;;;;5076109;28;20053;-67
2022/04/05 12:39:17;;;;;;;0.10;0.10;;;25.60;38.00;;;;;;5084906;28;20040;-67
2022/04/05 12:41:48;;;;;;;1.50;0.10;;;25.60;38.50;;;;;;5072557;28;20044;-60
2022/04/05 12:44:17;;;;;;;1.55;0.63;;;25.60;37.90;;;;;;5071598;28;20040;-56
2022/04/05 12:46:49;;;;;;;5.45;0.10;;;25.60;38.10;;;;;;5082754;28;20516;-56
2022/04/05 12:49:28;;;;;;;0.63;0.63;;;25.60;38.00;;;;;;5086546;28;20090;-55
2022/04/05 12:52:08;;;;;;;0.20;0.10;;;25.60;38.00;;;;;;5081637;28;20613;-57
2022/04/05 12:54:37;;;;;;;1.27;0.10;;;25.60;38.00;;;;;;5081329;28;20170;-68
2022/04/05 12:57:37;;;;;;;0.45;0.10;;;25.60;38.00;;;;;;5086360;28;20050;-65
2022/04/05 13:00:13;;;;;;;5.47;0.10;;;25.60;38.00;;;;;;5011716;28;20076;-67